createdAt,value
2023-05-02T00:01:06.323Z,99859.91
2023-05-02T00:05:22.532Z,99864.81
2023-05-02T00:09:38.956Z,99866.59
2023-05-02T00:13:55.317Z,99873.97
2023-05-02T00:18:12.108Z,99864.28
2023-05-02T00:22:28.600Z,99863.91
2023-05-02T00:26:44.922Z,99866.81
2023-05-02T00:31:01.308Z,99861.41
2023-05-02T00:35:17.701Z,99864.09
2023-05-02T00:39:36.143Z,99857.22
2023-05-02T00:43:52.513Z,99857.91
2023-05-02T00:48:10.013Z,99853.41
2023-05-02T00:52:26.782Z,99865.44
2023-05-02T00:56:43.132Z,99858.34
2023-05-02T01:01:16.899Z,99861.59
2023-05-02T01:05:47.263Z,99863.47
2023-05-02T01:10:23.310Z,99856.37
2023-05-02T01:14:45.124Z,99855.13
2023-05-02T01:19:02.215Z,99860.69
2023-05-02T01:23:44.990Z,99862.72
2023-05-02T01:28:23.694Z,99861.56
2023-05-02T01:32:42.109Z,99856.41
2023-05-02T01:36:59.647Z,99846.75
2023-05-02T01:41:16.357Z,99847.34
2023-05-02T01:45:34.193Z,99849.66
2023-05-02T01:49:50.619Z,99850.31
2023-05-02T01:54:09.184Z,99853.31
2023-05-02T01:58:27.522Z,99851.28
2023-05-02T02:02:44.884Z,99851.13
2023-05-02T02:07:07.974Z,99845.00
2023-05-02T02:11:36.005Z,99834.69
2023-05-02T02:15:54.068Z,99829.78
2023-05-02T02:20:12.800Z,99833.28
2023-05-02T02:24:29.331Z,99831.53
2023-05-02T02:28:46.241Z,99840.00
2023-05-02T02:33:02.460Z,99835.72
2023-05-02T02:37:30.444Z,99835.47
2023-05-02T02:42:08.493Z,99826.81
2023-05-02T02:46:34.695Z,99823.38
2023-05-02T02:51:16.235Z,99815.88
2023-05-02T02:55:48.018Z,99824.53
2023-05-02T03:00:22.245Z,99829.09
2023-05-02T03:04:46.189Z,99828.22
2023-05-02T03:09:02.619Z,99820.81
2023-05-02T03:13:18.839Z,99828.94
2023-05-02T03:17:35.121Z,99839.19
2023-05-02T03:21:51.389Z,99834.28
2023-05-02T03:26:07.750Z,99834.72
2023-05-02T03:30:24.079Z,99830.97
2023-05-02T03:34:42.002Z,99831.91
2023-05-02T03:38:58.368Z,99838.09
2023-05-02T03:43:14.784Z,99842.72
2023-05-02T03:47:31.009Z,99843.75
2023-05-02T03:51:47.347Z,99843.63
2023-05-02T03:56:03.596Z,99849.37
2023-05-02T04:00:19.968Z,99845.72
2023-05-02T04:04:36.596Z,99854.47
2023-05-02T04:08:52.909Z,99845.56
2023-05-02T04:13:09.224Z,99845.03
2023-05-02T04:17:25.545Z,99858.34
2023-05-02T04:21:41.924Z,99856.19
2023-05-02T04:25:58.263Z,99859.19
2023-05-02T04:30:14.760Z,99857.00
2023-05-02T04:34:31.031Z,99861.22
2023-05-02T04:38:47.305Z,99861.94
2023-05-02T04:43:03.574Z,99865.81
2023-05-02T04:47:19.810Z,99861.44
2023-05-02T04:51:36.109Z,99869.28
2023-05-02T04:55:52.451Z,99862.44
2023-05-02T05:00:09.330Z,99863.66
2023-05-02T05:04:25.944Z,99859.56
2023-05-02T05:08:42.461Z,99870.72
2023-05-02T05:12:58.672Z,99870.69
2023-05-02T05:17:15.058Z,99872.44
2023-05-02T05:21:31.321Z,99880.59
2023-05-02T05:25:47.746Z,99883.00
2023-05-02T05:30:04.749Z,99886.78
2023-05-02T05:34:21.324Z,99888.31
2023-05-02T05:38:37.954Z,99884.63
2023-05-02T05:42:54.233Z,99885.81
2023-05-02T05:47:10.664Z,99882.53
2023-05-02T05:51:28.105Z,99891.06
2023-05-02T05:55:44.449Z,99891.06
2023-05-02T06:00:01.032Z,99887.53
2023-05-02T06:04:17.696Z,99887.88
2023-05-02T06:08:33.941Z,99903.84
2023-05-02T06:12:50.292Z,99901.09
2023-05-02T06:17:06.868Z,99903.97
2023-05-02T06:21:23.156Z,99902.69
2023-05-02T06:25:39.710Z,99903.41
2023-05-02T06:29:56.017Z,99897.72
2023-05-02T06:34:12.280Z,99898.50
2023-05-02T06:38:28.633Z,99914.31
2023-05-02T06:42:44.950Z,99912.69
2023-05-02T06:47:01.408Z,99909.25
2023-05-02T06:51:19.640Z,99916.84
2023-05-02T06:55:35.856Z,99916.63
2023-05-02T06:59:52.218Z,99915.28
2023-05-02T07:04:08.433Z,99912.63
2023-05-02T07:08:24.774Z,99914.59
2023-05-02T07:12:41.331Z,99920.06
2023-05-02T07:16:57.814Z,99912.94
2023-05-02T07:21:14.601Z,99909.59
2023-05-02T07:25:30.901Z,99911.19
2023-05-02T07:29:47.101Z,99913.12
2023-05-02T07:34:03.326Z,99920.09
2023-05-02T07:38:19.602Z,99919.13
2023-05-02T07:42:36.502Z,99917.44
2023-05-02T07:46:53.692Z,99924.06
2023-05-02T07:51:13.739Z,99922.13
2023-05-02T07:55:31.550Z,99917.59
2023-05-02T07:59:48.223Z,99919.03
2023-05-02T08:04:07.600Z,99915.81
2023-05-02T08:08:24.220Z,99909.47
2023-05-02T08:12:41.678Z,99917.97
2023-05-02T08:16:58.349Z,99899.38
2023-05-02T08:21:14.581Z,99920.34
2023-05-02T08:25:30.829Z,99918.53
2023-05-02T08:29:46.988Z,99920.13
2023-05-02T08:34:03.186Z,99927.13
2023-05-02T08:38:19.322Z,99929.69
2023-05-02T08:42:36.013Z,99936.19
2023-05-02T08:46:52.723Z,99923.88
2023-05-02T08:51:16.299Z,99928.19
2023-05-02T08:55:33.223Z,99926.63
2023-05-02T08:59:50.160Z,99918.13
2023-05-02T09:04:06.619Z,99923.44
2023-05-02T09:08:24.572Z,99923.94
2023-05-02T09:12:41.096Z,99916.72
2023-05-02T09:17:03.934Z,99914.88
2023-05-02T09:21:25.586Z,99927.19
2023-05-02T09:25:41.984Z,99918.16
2023-05-02T09:30:30.571Z,99916.31
2023-05-02T09:35:06.339Z,99909.69
2023-05-02T09:39:29.382Z,99916.97
2023-05-02T09:43:55.122Z,99911.19
2023-05-02T09:48:12.359Z,99895.53
2023-05-02T09:52:28.610Z,99906.72
2023-05-02T09:56:56.918Z,99901.13
2023-05-02T10:01:20.137Z,99897.56
2023-05-02T10:05:40.701Z,99897.88
2023-05-02T10:09:58.805Z,99890.81
2023-05-02T10:14:16.701Z,99894.13
2023-05-02T10:18:45.292Z,99886.09
2023-05-02T10:23:04.769Z,99900.81
2023-05-02T10:27:21.631Z,99889.28
2023-05-02T10:31:39.969Z,99897.72
2023-05-02T10:35:56.301Z,99889.41
2023-05-02T10:40:13.853Z,99884.91
2023-05-02T10:44:37.888Z,99880.03
2023-05-02T10:49:04.537Z,99884.75
2023-05-02T10:53:33.906Z,99881.44
2023-05-02T10:58:01.716Z,99885.34
2023-05-02T11:02:24.300Z,99883.34
2023-05-02T11:07:01.466Z,99882.81
2023-05-02T11:11:43.829Z,99875.38
2023-05-02T11:16:00.358Z,99871.28
2023-05-02T11:20:19.786Z,99863.22
2023-05-02T11:24:43.080Z,99863.66
2023-05-02T11:28:59.326Z,99857.44
2023-05-02T11:33:17.769Z,99853.75
2023-05-02T11:37:34.341Z,99859.50
2023-05-02T11:41:51.301Z,99852.09
2023-05-02T11:46:07.900Z,99854.50
2023-05-02T11:50:25.844Z,99860.84
2023-05-02T11:54:42.152Z,99864.41
2023-05-02T11:59:04.549Z,99855.25
2023-05-02T12:03:33.323Z,99849.63
2023-05-02T12:07:49.677Z,99840.78
2023-05-02T12:12:06.103Z,99850.81
2023-05-02T12:16:22.506Z,99840.09
2023-05-02T12:20:39.558Z,99840.56
2023-05-02T12:24:56.228Z,99826.25
2023-05-02T12:29:12.903Z,99836.13
2023-05-02T12:33:29.152Z,99847.19
2023-05-02T12:37:47.324Z,99845.94
2023-05-02T12:42:17.977Z,99850.28
2023-05-02T12:46:34.371Z,99841.53
2023-05-02T12:50:51.446Z,99836.03
2023-05-02T12:55:37.152Z,99826.22
2023-05-02T12:59:57.082Z,99825.00
2023-05-02T13:04:13.566Z,99827.69
2023-05-02T13:08:30.075Z,99821.53
2023-05-02T13:12:47.043Z,99817.19
2023-05-02T13:17:04.300Z,99809.09
2023-05-02T13:21:20.658Z,99813.38
2023-05-02T13:25:36.971Z,99817.84
2023-05-02T13:29:53.236Z,99825.66
2023-05-02T13:34:09.470Z,99817.37
2023-05-02T13:38:26.260Z,99812.41
2023-05-02T13:42:42.629Z,99810.41
2023-05-02T13:46:58.860Z,99807.69
2023-05-02T13:51:15.024Z,99800.19
2023-05-02T13:55:31.396Z,99800.34
2023-05-02T13:59:47.595Z,99805.06
2023-05-02T14:04:09.115Z,99801.56
2023-05-02T14:08:25.860Z,99798.34
2023-05-02T14:12:42.271Z,99790.13
2023-05-02T14:17:00.573Z,99791.12
2023-05-02T14:21:17.504Z,99792.09
2023-05-02T14:25:33.870Z,99795.56
2023-05-02T14:29:50.182Z,99784.31
2023-05-02T14:34:08.797Z,99789.34
2023-05-02T14:38:25.310Z,99787.94
2023-05-02T14:42:42.393Z,99790.94
2023-05-02T14:46:58.943Z,99793.66
2023-05-02T14:51:15.678Z,99801.84
2023-05-02T14:55:36.397Z,99804.66
2023-05-02T14:59:53.036Z,99813.19
2023-05-02T15:04:09.748Z,99807.22
2023-05-02T15:08:27.693Z,99836.06
2023-05-02T15:12:44.055Z,99846.19
2023-05-02T15:17:00.580Z,99850.25
2023-05-02T15:21:17.151Z,99823.34
2023-05-02T15:25:33.934Z,99802.53
2023-05-02T15:29:50.243Z,99798.50
2023-05-02T15:34:06.588Z,99794.69
2023-05-02T15:38:22.876Z,99807.28
2023-05-02T15:42:39.131Z,99809.03
2023-05-02T15:46:56.192Z,99795.37
2023-05-02T15:51:13.820Z,99799.06
2023-05-02T15:55:31.254Z,99801.22
2023-05-02T15:59:47.448Z,99802.53
2023-05-02T16:04:06.450Z,99802.66
2023-05-02T16:08:22.710Z,99800.56
2023-05-02T16:12:38.970Z,99795.81
2023-05-02T16:16:56.500Z,99798.38
2023-05-02T16:21:12.896Z,99798.06
2023-05-02T16:25:29.296Z,99808.13
2023-05-02T16:29:45.588Z,99819.06
2023-05-02T16:34:03.215Z,99817.53
2023-05-02T16:38:19.470Z,99810.84
2023-05-02T16:42:35.913Z,99814.75
2023-05-02T16:46:52.714Z,99810.66
2023-05-02T16:51:09.156Z,99804.34
2023-05-02T16:55:25.446Z,99802.06
2023-05-02T16:59:41.952Z,99809.56
2023-05-02T17:03:58.294Z,99811.53
2023-05-02T17:08:15.086Z,99808.75
2023-05-02T17:12:31.945Z,99809.81
2023-05-02T17:16:48.273Z,99830.00
2023-05-02T17:21:04.719Z,99853.28
2023-05-02T17:25:21.087Z,99849.84
2023-05-02T17:29:37.708Z,99849.44
2023-05-02T17:33:54.043Z,99870.91
2023-05-02T17:38:10.238Z,99863.47
2023-05-02T17:42:26.527Z,99884.53
2023-05-02T17:46:43.365Z,99884.84
2023-05-02T17:51:02.544Z,99906.66
2023-05-02T17:55:19.192Z,99901.81
2023-05-02T17:59:39.201Z,99913.81
2023-05-02T18:03:55.481Z,99905.03
2023-05-02T18:08:11.945Z,99918.84
2023-05-02T18:12:28.528Z,99945.69
2023-05-02T18:16:48.767Z,99947.41
2023-05-02T18:21:06.376Z,99958.62
2023-05-02T18:25:22.577Z,99966.91
2023-05-02T18:29:38.747Z,99964.13
2023-05-02T18:33:55.108Z,99976.31
2023-05-02T18:38:11.763Z,99973.25
2023-05-02T18:42:28.400Z,99969.31
2023-05-02T18:46:44.655Z,99969.63
2023-05-02T18:51:01.551Z,99966.19
2023-05-02T18:55:18.587Z,99973.69
2023-05-02T18:59:34.832Z,99974.19
2023-05-02T19:03:52.949Z,99972.72
2023-05-02T19:08:09.809Z,99985.13
2023-05-02T19:12:26.104Z,100001.72
2023-05-02T19:16:42.329Z,100000.78
2023-05-02T19:20:58.820Z,100007.78
2023-05-02T19:25:16.015Z,100012.09
2023-05-02T19:29:32.166Z,100019.94
2023-05-02T19:33:52.205Z,100033.09
2023-05-02T19:38:08.519Z,100035.16
2023-05-02T19:42:24.677Z,100032.69
2023-05-02T19:46:41.068Z,100033.41
2023-05-02T19:50:57.364Z,100030.97
2023-05-02T19:55:13.819Z,100034.69
2023-05-02T19:59:30.460Z,100041.31
2023-05-02T20:03:48.359Z,100053.50
2023-05-02T20:08:04.704Z,100075.63
2023-05-02T20:12:21.823Z,100064.53
2023-05-02T20:16:38.351Z,100081.13
2023-05-02T20:20:55.048Z,100099.47
2023-05-02T20:25:12.120Z,100125.34
2023-05-02T20:29:28.363Z,100115.00
2023-05-02T20:33:46.029Z,100088.03
2023-05-02T20:38:02.500Z,100065.09
2023-05-02T20:42:23.484Z,100058.19
2023-05-02T20:46:39.794Z,100069.50
2023-05-02T20:50:56.204Z,100101.09
2023-05-02T20:55:12.680Z,100110.91
2023-05-02T20:59:28.943Z,100112.88
2023-05-02T21:03:45.407Z,100119.25
2023-05-02T21:08:01.813Z,100130.97
2023-05-02T21:12:18.333Z,100139.31
2023-05-02T21:16:34.772Z,100153.16
2023-05-02T21:20:51.153Z,100153.63
2023-05-02T21:25:07.652Z,100123.69
2023-05-02T21:29:23.822Z,100098.13
2023-05-02T21:33:41.626Z,100118.84
2023-05-02T21:37:57.929Z,100128.44
2023-05-02T21:42:14.156Z,100122.69
2023-05-02T21:46:30.394Z,100111.66
2023-05-02T21:50:46.792Z,100112.50
2023-05-02T21:55:03.175Z,100121.13
2023-05-02T21:59:19.632Z,100123.84
2023-05-02T22:03:36.866Z,100134.94
2023-05-02T22:07:53.280Z,100122.09
2023-05-02T22:12:09.626Z,100126.59
2023-05-02T22:16:26.622Z,100126.06
2023-05-02T22:20:43.709Z,100118.87
2023-05-02T22:25:00.527Z,100125.91
2023-05-02T22:29:16.913Z,100116.88
2023-05-02T22:33:33.258Z,100130.38
2023-05-02T22:37:50.168Z,100126.06
2023-05-02T22:42:06.556Z,100126.31
2023-05-02T22:46:22.896Z,100129.47
2023-05-02T22:50:39.145Z,100139.81
2023-05-02T22:54:55.607Z,100140.06
2023-05-02T22:59:11.958Z,100144.94
2023-05-02T23:03:28.319Z,100144.78
2023-05-02T23:07:44.995Z,100138.84
2023-05-02T23:12:06.024Z,100146.50
2023-05-02T23:16:22.369Z,100144.16
2023-05-02T23:20:38.694Z,100156.22
2023-05-02T23:24:55.024Z,100156.84
2023-05-02T23:29:12.616Z,100146.97
2023-05-02T23:33:29.850Z,100140.06
2023-05-02T23:37:46.208Z,100131.28
2023-05-02T23:42:03.956Z,100121.59
2023-05-02T23:46:20.288Z,100123.56
2023-05-02T23:50:36.754Z,100123.66
2023-05-02T23:54:53.070Z,100112.13
2023-05-02T23:59:09.524Z,100118.78
